Time;durP1;ratioP1;P1;durP2;ratioP2;P2;SDS_P1;SDS_P2;PMS_P1;PMS_P2;Temp;Humidity;BMP_temperature;BMP_pressure;BME280_temperature;BME280_humidity;BME280_pressure;Samples;Min_cycle;Max_cycle;Signal;HPM_P1;HPM_P2
2022/04/11 00:02:09;;;;;;;9.63;3.97;;;2.00;99.90;;;;;;4901766;29;20044;-79
2022/04/11 00:04:34;;;;;;;10.15;4.20;;;2.00;99.90;;;;;;4884773;29;20040;-79
2022/04/11 00:07:00;;;;;;;8.98;3.70;;;2.00;99.90;;;;;;4900921;29;20048;-79
2022/04/11 00:09:25;;;;;;;6.00;3.95;;;2.00;99.90;;;;;;4902084;29;20036;-79
2022/04/11 00:11:51;;;;;;;9.20;3.45;;;2.00;99.90;;;;;;4901068;29;20503;-79
2022/04/11 00:14:17;;;;;;;7.50;3.50;;;2.00;99.90;;;;;;4883304;29;20055;-79
2022/04/11 00:16:43;;;;;;;7.68;3.63;;;2.00;99.90;;;;;;4882505;29;20053;-79
2022/04/11 00:19:08;;;;;;;8.52;4.28;;;2.00;99.90;;;;;;4882851;29;20057;-79
2022/04/11 00:21:35;;;;;;;7.80;3.22;;;1.90;99.90;;;;;;4901619;29;20053;-79
2022/04/11 00:24:00;;;;;;;7.22;3.42;;;2.00;99.90;;;;;;4885335;29;20070;-79
2022/04/11 00:26:26;;;;;;;11.80;4.15;;;1.90;99.90;;;;;;4900588;29;20096;-79
2022/04/11 00:28:53;;;;;;;10.40;3.72;;;1.80;99.90;;;;;;4899656;29;20048;-79
2022/04/11 00:31:19;;;;;;;10.30;3.60;;;1.80;99.90;;;;;;4900435;29;20036;-79
2022/04/11 00:33:44;;;;;;;6.25;3.10;;;1.80;99.90;;;;;;4900365;29;20484;-79
2022/04/11 00:36:11;;;;;;;9.77;3.25;;;1.80;99.90;;;;;;4884864;29;20044;-79
2022/04/11 00:38:37;;;;;;;9.00;3.55;;;1.80;99.90;;;;;;4883793;29;20089;-78
2022/04/11 00:41:03;;;;;;;9.93;3.90;;;1.70;99.90;;;;;;4883123;29;20092;-79
2022/04/11 00:43:32;;;;;;;7.65;4.03;;;1.70;99.90;;;;;;4883277;29;20128;-79
2022/04/11 00:45:58;;;;;;;9.13;2.85;;;1.70;99.90;;;;;;4883416;29;20041;-79
2022/04/11 00:48:24;;;;;;;9.15;3.60;;;1.70;99.90;;;;;;4900826;29;20119;-79
2022/04/11 00:50:51;;;;;;;5.80;3.33;;;1.70;99.90;;;;;;4884872;29;20462;-79
2022/04/11 00:53:17;;;;;;;9.48;3.53;;;1.70;99.90;;;;;;4900234;29;20059;-79
2022/04/11 00:55:43;;;;;;;8.68;3.35;;;1.80;99.90;;;;;;4883505;29;20049;-79
2022/04/11 00:58:08;;;;;;;8.52;4.05;;;1.70;99.90;;;;;;4883446;29;20115;-79
2022/04/11 01:00:36;;;;;;;8.27;3.47;;;1.80;99.90;;;;;;4883728;29;20051;-79
2022/04/11 01:03:02;;;;;;;6.70;3.03;;;1.70;99.90;;;;;;4900640;29;20496;-79
2022/04/11 01:05:28;;;;;;;9.23;3.67;;;1.60;99.90;;;;;;4884153;29;20049;-79
2022/04/11 01:08:06;;;;;;;8.30;3.72;;;1.60;99.90;;;;;;4885228;29;20104;-79
2022/04/11 01:10:32;;;;;;;6.93;3.60;;;1.60;99.90;;;;;;4899872;29;20396;-79
2022/04/11 01:12:58;;;;;;;7.20;3.70;;;1.60;99.90;;;;;;4899789;29;20433;-79
2022/04/11 01:15:24;;;;;;;6.15;3.25;;;1.50;99.90;;;;;;4883790;29;20059;-79
2022/04/11 01:17:49;;;;;;;6.47;3.42;;;1.50;99.90;;;;;;4882935;29;20052;-79
2022/04/11 01:20:19;;;;;;;10.05;3.28;;;1.50;99.90;;;;;;4883171;29;20445;-79
2022/04/11 01:22:46;;;;;;;7.70;3.22;;;1.40;99.90;;;;;;4899875;29;20127;-79
2022/04/11 01:25:14;;;;;;;8.30;3.40;;;1.50;99.90;;;;;;4882860;29;20059;-79
2022/04/11 01:27:41;;;;;;;9.18;3.45;;;1.40;99.90;;;;;;4901312;29;20056;-79
2022/04/11 01:30:08;;;;;;;9.00;3.33;;;1.40;99.90;;;;;;4901260;29;20053;-79
2022/04/11 01:32:35;;;;;;;9.80;3.63;;;1.40;99.90;;;;;;4884987;29;20116;-78
2022/04/11 01:35:01;;;;;;;8.63;3.25;;;1.40;99.90;;;;;;4901357;29;20184;-79
2022/04/11 01:37:27;;;;;;;7.00;3.20;;;1.40;99.90;;;;;;4884061;29;20049;-79
2022/04/11 01:39:54;;;;;;;7.97;3.35;;;1.30;99.90;;;;;;4883821;29;20086;-78
2022/04/11 01:42:19;;;;;;;6.30;3.60;;;1.30;99.90;;;;;;4882078;29;20112;-78
2022/04/11 01:44:45;;;;;;;9.60;3.85;;;1.40;99.90;;;;;;4900010;29;20060;-79
2022/04/11 01:47:11;;;;;;;8.05;3.55;;;1.40;99.90;;;;;;4883147;29;20140;-79
2022/04/11 01:49:37;;;;;;;6.60;3.08;;;1.30;99.90;;;;;;4899147;29;20037;-79
2022/04/11 01:52:03;;;;;;;5.88;3.47;;;1.30;99.90;;;;;;4883168;29;20053;-79
2022/04/11 01:54:28;;;;;;;7.32;3.70;;;1.40;99.90;;;;;;4883302;29;20124;-79
2022/04/11 01:56:54;;;;;;;9.52;3.50;;;1.30;99.90;;;;;;4900359;29;20095;-81
2022/04/11 01:59:20;;;;;;;9.40;4.30;;;1.30;99.90;;;;;;4899957;29;20057;-80
2022/04/11 02:01:45;;;;;;;9.52;3.85;;;1.30;99.90;;;;;;4884247;29;20435;-79
2022/04/11 02:04:11;;;;;;;9.38;4.43;;;1.30;99.90;;;;;;4904215;29;20491;-79
2022/04/11 02:06:37;;;;;;;8.68;4.65;;;1.30;99.90;;;;;;4903436;29;20044;-79
2022/04/11 02:09:03;;;;;;;10.60;4.20;;;1.30;99.90;;;;;;4886380;29;20048;-79
2022/04/11 02:11:29;;;;;;;8.85;4.18;;;1.30;99.90;;;;;;4903326;29;20484;-79
2022/04/11 02:13:55;;;;;;;7.63;4.13;;;1.30;99.90;;;;;;4886735;29;20059;-79
2022/04/11 02:16:22;;;;;;;9.00;3.72;;;1.30;99.90;;;;;;4902833;29;20055;-79
2022/04/11 02:18:48;;;;;;;9.43;3.95;;;1.30;99.90;;;;;;4885889;29;20056;-79
2022/04/11 02:21:13;;;;;;;8.55;3.63;;;1.30;99.90;;;;;;4887642;29;20048;-80
2022/04/11 02:23:39;;;;;;;8.93;3.90;;;1.30;99.90;;;;;;4902753;29;20048;-79
2022/04/11 02:26:05;;;;;;;7.57;3.70;;;1.30;99.90;;;;;;4902957;29;20411;-79
2022/04/11 02:28:31;;;;;;;12.18;3.78;;;1.40;99.90;;;;;;4903947;29;20044;-79
2022/04/11 02:30:57;;;;;;;7.40;3.70;;;1.40;99.90;;;;;;4902097;29;20052;-79
2022/04/11 02:33:22;;;;;;;9.57;4.00;;;1.30;99.90;;;;;;4885763;29;20044;-79
2022/04/11 02:35:48;;;;;;;9.23;4.32;;;1.30;99.90;;;;;;4902988;29;20056;-79
2022/04/11 02:38:13;;;;;;;8.55;3.60;;;1.30;99.90;;;;;;4902318;29;20076;-79
2022/04/11 02:40:41;;;;;;;6.28;3.75;;;1.20;99.90;;;;;;4885791;29;20060;-79
2022/04/11 02:43:06;;;;;;;11.80;4.10;;;1.20;99.90;;;;;;4886813;29;20060;-79
2022/04/11 02:45:32;;;;;;;8.65;4.00;;;1.20;99.90;;;;;;4903104;29;20081;-79
2022/04/11 02:47:58;;;;;;;7.28;3.08;;;1.20;99.90;;;;;;4884377;29;20053;-79
2022/04/11 02:50:23;;;;;;;7.57;3.58;;;1.20;99.90;;;;;;4884792;29;20059;-78
2022/04/11 02:52:49;;;;;;;8.13;4.57;;;1.20;99.90;;;;;;4902762;29;20494;-79
2022/04/11 02:55:14;;;;;;;7.82;4.28;;;1.20;99.90;;;;;;4901557;29;20407;-78
2022/04/11 02:57:40;;;;;;;9.40;4.45;;;1.10;99.90;;;;;;4884771;29;20049;-78
2022/04/11 03:00:12;;;;;;;8.05;3.65;;;1.10;99.90;;;;;;4885696;29;20053;-78
2022/04/11 03:02:38;;;;;;;10.02;4.03;;;1.10;99.90;;;;;;4903099;29;20048;-79
2022/04/11 03:05:04;;;;;;;8.25;4.20;;;1.10;99.90;;;;;;4902480;29;20053;-78
2022/04/11 03:07:30;;;;;;;8.77;3.72;;;1.10;99.90;;;;;;4887383;29;20052;-79
2022/04/11 03:09:56;;;;;;;8.07;4.35;;;1.20;99.90;;;;;;4886809;29;20052;-79
2022/04/11 03:12:22;;;;;;;8.18;4.05;;;1.20;99.90;;;;;;4901923;29;20099;-79
2022/04/11 03:14:51;;;;;;;6.57;3.60;;;1.30;99.90;;;;;;4885950;29;20053;-79
2022/04/11 03:17:17;;;;;;;8.48;4.22;;;1.30;99.90;;;;;;4885823;29;20053;-79
2022/04/11 03:19:46;;;;;;;11.38;3.70;;;1.30;99.90;;;;;;4902024;29;20068;-79
2022/04/11 03:22:12;;;;;;;8.80;3.58;;;1.30;99.90;;;;;;4902543;29;20080;-81
2022/04/11 03:24:38;;;;;;;9.45;4.65;;;1.40;99.90;;;;;;4901726;29;20090;-80
2022/04/11 03:27:04;;;;;;;8.73;3.72;;;1.40;99.90;;;;;;4886480;29;20057;-80
2022/04/11 03:29:30;;;;;;;7.78;4.22;;;1.40;99.90;;;;;;4884637;29;20055;-80
2022/04/11 03:31:56;;;;;;;7.88;3.88;;;1.50;99.90;;;;;;4885117;29;20127;-80
2022/04/11 03:34:22;;;;;;;7.22;4.18;;;1.50;99.90;;;;;;4884786;29;20113;-81
2022/04/11 03:36:48;;;;;;;6.50;3.30;;;1.50;99.90;;;;;;4902371;29;20044;-81
2022/04/11 03:39:14;;;;;;;9.88;3.65;;;1.60;99.90;;;;;;4884972;29;20068;-81
2022/04/11 03:41:43;;;;;;;8.75;4.10;;;1.60;99.90;;;;;;4901364;29;20061;-81
2022/04/11 03:44:10;;;;;;;7.50;3.70;;;1.60;99.90;;;;;;4900948;29;20059;-81
2022/04/11 03:46:36;;;;;;;8.02;4.28;;;1.60;99.90;;;;;;4900860;29;20127;-81
2022/04/11 03:49:02;;;;;;;9.70;4.15;;;1.70;99.90;;;;;;4900831;29;20489;-81
2022/04/11 03:51:28;;;;;;;7.78;3.75;;;1.70;99.90;;;;;;4901614;29;20057;-81
2022/04/11 03:53:53;;;;;;;7.32;3.42;;;1.70;99.90;;;;;;4900508;29;20496;-81
2022/04/11 03:56:19;;;;;;;6.93;3.78;;;1.70;99.90;;;;;;4901560;29;20089;-81
2022/04/11 03:58:45;;;;;;;7.47;4.35;;;1.80;99.90;;;;;;4901074;29;20099;-81
2022/04/11 04:01:11;;;;;;;10.00;4.07;;;1.80;99.90;;;;;;4901312;29;20143;-81
2022/04/11 04:03:37;;;;;;;10.02;3.58;;;1.80;99.90;;;;;;4883541;29;20064;-81
2022/04/11 04:06:03;;;;;;;7.57;4.47;;;1.80;99.90;;;;;;4883467;29;20117;-81
2022/04/11 04:08:29;;;;;;;8.50;4.00;;;1.80;99.90;;;;;;4884334;29;20479;-80
2022/04/11 04:10:55;;;;;;;8.73;4.30;;;1.80;99.90;;;;;;4900603;29;20472;-80
2022/04/11 04:13:20;;;;;;;7.53;4.20;;;1.90;99.90;;;;;;4883210;29;20148;-81
2022/04/11 04:15:46;;;;;;;9.73;4.10;;;1.90;99.90;;;;;;4900502;29;20048;-81
2022/04/11 04:18:12;;;;;;;8.32;3.45;;;1.90;99.90;;;;;;4901044;29;20048;-81
2022/04/11 04:20:39;;;;;;;7.47;3.83;;;1.90;99.90;;;;;;4884321;29;20045;-81
2022/04/11 04:23:05;;;;;;;9.00;4.20;;;1.90;99.90;;;;;;4884550;29;20404;-81
2022/04/11 04:25:36;;;;;;;9.38;4.10;;;2.00;99.90;;;;;;4900544;29;20045;-81
2022/04/11 04:28:02;;;;;;;8.93;4.40;;;2.00;99.90;;;;;;4901102;29;20041;-80
2022/04/11 04:30:31;;;;;;;9.25;4.75;;;2.00;99.90;;;;;;4883653;29;20104;-80
2022/04/11 04:32:58;;;;;;;7.93;3.95;;;2.10;99.90;;;;;;4901098;29;20039;-80
2022/04/11 04:35:24;;;;;;;7.57;3.90;;;2.10;99.90;;;;;;4884837;29;20064;-80
2022/04/11 04:37:50;;;;;;;8.15;4.30;;;2.10;99.90;;;;;;4900745;29;20049;-81
2022/04/11 04:40:15;;;;;;;8.38;3.70;;;2.10;99.90;;;;;;4882800;29;20136;-81
2022/04/11 04:42:41;;;;;;;8.43;4.15;;;2.10;99.90;;;;;;4900647;29;20060;-81
2022/04/11 04:45:09;;;;;;;9.32;4.53;;;2.10;99.90;;;;;;4900226;29;20373;-81
2022/04/11 04:47:34;;;;;;;8.15;4.40;;;2.10;99.90;;;;;;4899954;29;20044;-81
2022/04/11 04:50:00;;;;;;;11.75;5.78;;;2.10;99.90;;;;;;4898784;29;20071;-80
2022/04/11 04:52:26;;;;;;;7.95;3.97;;;2.10;99.90;;;;;;4898716;29;20040;-80
2022/04/11 04:54:52;;;;;;;8.13;4.03;;;2.10;99.90;;;;;;4898270;29;20059;-80
2022/04/11 04:57:17;;;;;;;8.82;4.03;;;2.20;99.90;;;;;;4898123;29;20484;-80
2022/04/11 04:59:43;;;;;;;9.32;3.95;;;2.20;99.90;;;;;;4881611;29;20065;-80
2022/04/11 05:02:09;;;;;;;8.75;4.60;;;2.20;99.90;;;;;;4881676;29;20510;-80
2022/04/11 05:04:34;;;;;;;6.95;3.65;;;2.20;99.90;;;;;;4881611;29;20079;-80
2022/04/11 05:07:00;;;;;;;8.02;3.85;;;2.20;99.90;;;;;;4898514;29;20048;-81
2022/04/11 05:09:26;;;;;;;9.05;3.78;;;2.30;99.90;;;;;;4898497;29;20052;-80
2022/04/11 05:11:51;;;;;;;8.07;3.67;;;2.30;99.90;;;;;;4881554;29;20444;-80
2022/04/11 05:14:17;;;;;;;8.07;3.35;;;2.30;99.90;;;;;;4898520;29;20046;-80
2022/04/11 05:16:43;;;;;;;9.07;4.22;;;2.40;99.90;;;;;;4898456;29;20067;-80
2022/04/11 05:19:09;;;;;;;5.80;3.45;;;2.40;99.90;;;;;;4881680;29;20044;-80
2022/04/11 05:21:35;;;;;;;8.50;4.05;;;2.40;99.90;;;;;;4898253;29;20484;-80
2022/04/11 05:24:01;;;;;;;6.38;3.42;;;2.40;99.90;;;;;;4898464;29;20044;-80
2022/04/11 05:26:26;;;;;;;6.60;4.05;;;2.50;99.90;;;;;;4898440;29;20488;-80
2022/04/11 05:28:52;;;;;;;7.65;3.38;;;2.50;99.90;;;;;;4898121;29;20056;-80
2022/04/11 05:31:18;;;;;;;7.65;3.70;;;2.50;99.90;;;;;;4881381;29;20045;-80
2022/04/11 05:33:44;;;;;;;8.07;3.92;;;2.60;99.90;;;;;;4898193;29;20054;-81
2022/04/11 05:36:10;;;;;;;6.90;4.20;;;2.60;99.90;;;;;;4900290;29;20055;-81
2022/04/11 05:38:37;;;;;;;4.93;3.10;;;2.60;99.90;;;;;;4901759;29;20392;-81
2022/04/11 05:41:02;;;;;;;7.00;3.20;;;2.60;99.90;;;;;;4901785;29;20088;-81
2022/04/11 05:43:28;;;;;;;7.68;3.55;;;2.70;99.90;;;;;;4885281;29;20200;-81
2022/04/11 05:45:54;;;;;;;7.47;3.55;;;2.70;99.90;;;;;;4884956;29;20052;-81
2022/04/11 05:48:19;;;;;;;8.25;3.97;;;2.70;99.90;;;;;;4901678;29;20056;-81
2022/04/11 05:50:45;;;;;;;6.53;3.17;;;2.80;99.90;;;;;;4901867;29;20507;-81
2022/04/11 05:53:11;;;;;;;8.93;3.30;;;2.80;99.90;;;;;;4901629;29;20040;-81
2022/04/11 05:55:36;;;;;;;6.38;3.28;;;2.80;99.90;;;;;;4901747;29;20033;-81
2022/04/11 05:58:02;;;;;;;6.03;3.05;;;2.80;99.90;;;;;;4884616;29;20437;-81
2022/04/11 06:00:28;;;;;;;5.20;3.03;;;2.90;99.90;;;;;;4884603;29;20052;-81
2022/04/11 06:02:54;;;;;;;5.78;3.35;;;2.90;99.90;;;;;;4901576;29;20049;-80
2022/04/11 06:05:20;;;;;;;6.70;3.58;;;3.00;99.90;;;;;;4901380;29;20519;-80
2022/04/11 06:07:45;;;;;;;7.82;3.30;;;3.00;99.90;;;;;;4901603;29;20504;-80
2022/04/11 06:10:12;;;;;;;4.13;2.78;;;3.10;99.90;;;;;;4901262;29;20053;-80
2022/04/11 06:12:38;;;;;;;5.25;2.88;;;3.10;99.90;;;;;;4884426;29;20055;-80
2022/04/11 06:15:05;;;;;;;7.70;2.92;;;3.20;99.90;;;;;;4901408;29;20081;-80
2022/04/11 06:17:31;;;;;;;5.22;3.05;;;3.20;99.90;;;;;;4900881;29;20464;-80
2022/04/11 06:19:58;;;;;;;7.55;3.13;;;3.30;99.90;;;;;;4901373;29;20539;-80
2022/04/11 06:22:24;;;;;;;6.75;2.95;;;3.30;99.90;;;;;;4884641;29;20064;-80
2022/04/11 06:24:50;;;;;;;5.10;2.55;;;3.30;99.90;;;;;;4901219;29;20104;-80
2022/04/11 06:27:17;;;;;;;7.10;3.08;;;3.40;99.90;;;;;;4884207;29;20064;-80
2022/04/11 06:29:43;;;;;;;4.28;2.45;;;3.40;99.90;;;;;;4884169;29;20139;-80
2022/04/11 06:32:09;;;;;;;7.15;2.92;;;3.50;99.90;;;;;;4900948;29;20059;-80
2022/04/11 06:34:36;;;;;;;4.35;2.50;;;3.60;99.90;;;;;;4901090;29;20048;-81
2022/04/11 06:37:03;;;;;;;6.28;3.20;;;3.60;99.90;;;;;;4883977;29;20132;-81
2022/04/11 06:39:28;;;;;;;6.55;3.53;;;3.70;99.90;;;;;;4884283;29;20392;-81
2022/04/11 06:41:54;;;;;;;8.70;4.78;;;3.80;99.90;;;;;;4900652;29;20052;-81
2022/04/11 06:44:20;;;;;;;8.05;4.57;;;3.90;99.90;;;;;;4900843;29;20053;-81
2022/04/11 06:46:46;;;;;;;6.85;2.92;;;4.00;99.90;;;;;;4883154;29;20060;-80
2022/04/11 06:49:11;;;;;;;5.60;2.63;;;4.00;99.90;;;;;;4900505;29;20052;-80
2022/04/11 06:51:37;;;;;;;8.75;3.85;;;4.10;99.90;;;;;;4885822;29;20085;-79
2022/04/11 06:54:04;;;;;;;5.82;3.58;;;4.20;99.90;;;;;;4908578;29;20064;-80
2022/04/11 06:56:30;;;;;;;6.68;2.75;;;4.30;99.90;;;;;;4900349;29;20045;-81
2022/04/11 06:58:56;;;;;;;7.75;3.08;;;4.40;99.90;;;;;;4883404;29;20059;-79
2022/04/11 07:01:21;;;;;;;6.60;3.20;;;4.50;99.90;;;;;;4900232;29;20092;-80
2022/04/11 07:03:47;;;;;;;5.95;2.50;;;4.60;99.90;;;;;;4900351;29;20543;-80
2022/04/11 07:06:13;;;;;;;6.55;3.38;;;4.60;99.90;;;;;;4883352;29;20058;-82
2022/04/11 07:08:39;;;;;;;5.78;3.78;;;4.80;99.90;;;;;;4883219;29;20048;-79
2022/04/11 07:11:06;;;;;;;7.63;3.75;;;4.90;99.90;;;;;;4900127;29;20128;-79
2022/04/11 07:13:33;;;;;;;9.60;5.47;;;4.90;99.90;;;;;;4900279;29;20112;-79
2022/04/11 07:15:59;;;;;;;9.60;4.78;;;5.00;99.90;;;;;;4883348;29;20059;-79
2022/04/11 07:18:27;;;;;;;5.70;3.63;;;5.10;99.90;;;;;;4899909;29;20053;-79
2022/04/11 07:20:53;;;;;;;6.93;3.00;;;5.20;99.90;;;;;;4900160;29;20050;-79
2022/04/11 07:23:19;;;;;;;6.50;4.15;;;5.30;99.90;;;;;;4899835;29;20532;-79
2022/04/11 07:25:45;;;;;;;8.60;4.68;;;5.40;99.90;;;;;;4899830;29;20045;-79
2022/04/11 07:28:11;;;;;;;6.70;3.85;;;5.50;99.90;;;;;;4899880;29;20041;-79
2022/04/11 07:30:37;;;;;;;9.23;3.83;;;5.50;99.90;;;;;;4899722;29;20048;-79
2022/04/11 07:33:03;;;;;;;7.60;3.55;;;5.60;99.90;;;;;;4899893;29;20396;-80
2022/04/11 07:35:28;;;;;;;6.70;3.40;;;5.70;99.90;;;;;;4899856;29;20052;-81
2022/04/11 07:37:57;;;;;;;7.00;3.88;;;5.80;99.90;;;;;;4882748;29;20060;-81
2022/04/11 07:40:24;;;;;;;6.75;3.60;;;6.00;99.90;;;;;;4882705;29;20095;-80
2022/04/11 07:42:51;;;;;;;7.47;3.15;;;6.10;99.90;;;;;;4899661;29;20064;-80
2022/04/11 07:45:18;;;;;;;6.68;2.78;;;6.20;99.90;;;;;;4911006;29;20044;-80
2022/04/11 07:47:44;;;;;;;6.22;2.45;;;6.30;99.90;;;;;;4901474;29;20119;-78
2022/04/11 07:50:10;;;;;;;6.85;2.47;;;6.60;99.90;;;;;;4901297;29;20126;-79
2022/04/11 07:52:40;;;;;;;5.78;2.40;;;7.00;99.90;;;;;;4918256;29;20083;-80
2022/04/11 07:55:06;;;;;;;6.75;2.10;;;7.20;99.90;;;;;;4901325;29;20492;-80
2022/04/11 07:57:32;;;;;;;4.68;1.30;;;7.50;99.90;;;;;;4918137;29;20055;-79
2022/04/11 07:59:58;;;;;;;3.58;1.60;;;7.80;99.90;;;;;;4899991;29;20048;-79
2022/04/11 08:02:27;;;;;;;4.03;1.08;;;8.00;99.90;;;;;;4901121;29;20184;-80
2022/04/11 08:04:53;;;;;;;6.15;1.05;;;8.10;99.90;;;;;;4901227;29;20054;-79
2022/04/11 08:07:20;;;;;;;8.98;3.38;;;8.40;99.90;;;;;;4917898;29;20550;-80
2022/04/11 08:09:45;;;;;;;3.15;1.25;;;8.50;99.90;;;;;;4917910;29;20044;-79
2022/04/11 08:12:11;;;;;;;5.15;1.00;;;8.70;99.90;;;;;;4900897;29;20040;-79
2022/04/11 08:14:37;;;;;;;3.38;1.20;;;8.90;99.90;;;;;;4917148;29;20622;-80
2022/04/11 08:17:03;;;;;;;5.35;1.27;;;9.10;99.90;;;;;;4900622;29;20056;-81
2022/04/11 08:19:32;;;;;;;4.93;1.20;;;9.20;99.90;;;;;;4917866;29;20042;-81
2022/04/11 08:21:58;;;;;;;4.18;1.02;;;9.40;99.90;;;;;;4917724;29;20084;-80
2022/04/11 08:24:24;;;;;;;2.40;1.00;;;9.50;99.90;;;;;;4900364;29;20115;-81
2022/04/11 08:26:50;;;;;;;3.10;1.25;;;9.70;99.90;;;;;;4917803;29;20389;-81
2022/04/11 08:29:17;;;;;;;2.45;0.90;;;9.80;99.90;;;;;;4900817;29;20083;-80
2022/04/11 08:31:43;;;;;;;3.78;0.90;;;9.90;99.90;;;;;;4917536;29;20067;-80
2022/04/11 08:34:10;;;;;;;3.50;1.10;;;10.00;99.90;;;;;;4917796;29;20048;-80
2022/04/11 08:36:35;;;;;;;4.18;1.08;;;10.10;99.90;;;;;;4917642;29;20040;-79
2022/04/11 08:39:02;;;;;;;5.47;1.25;;;10.00;99.90;;;;;;4917509;29;20044;-80
2022/04/11 08:41:33;;;;;;;3.55;1.20;;;10.00;99.90;;;;;;4917080;29;20503;-80
2022/04/11 08:44:00;;;;;;;2.58;0.70;;;10.20;99.90;;;;;;4900060;29;20095;-80
2022/04/11 08:46:27;;;;;;;4.32;1.10;;;10.50;99.90;;;;;;4900134;29;20105;-80
2022/04/11 08:48:53;;;;;;;2.75;1.00;;;10.60;99.90;;;;;;4917254;29;20064;-80
2022/04/11 08:51:19;;;;;;;4.00;1.05;;;10.70;99.90;;;;;;4900250;29;20044;-81
2022/04/11 08:53:45;;;;;;;6.07;1.35;;;10.80;99.90;;;;;;4900287;29;20072;-80
2022/04/11 08:56:11;;;;;;;5.10;0.90;;;11.00;99.90;;;;;;4899586;29;20539;-80
2022/04/11 08:58:36;;;;;;;3.47;1.02;;;10.90;99.90;;;;;;4917398;29;20044;-80
2022/04/11 09:01:02;;;;;;;3.13;0.98;;;10.90;99.90;;;;;;4917234;29;20140;-80
2022/04/11 09:03:28;;;;;;;4.10;0.90;;;11.00;99.90;;;;;;4917092;29;20091;-80
2022/04/11 09:06:10;;;;;;;3.70;1.50;;;11.00;99.90;;;;;;4898321;29;20107;-82
2022/04/11 09:08:48;;;;;;;2.92;0.85;;;10.90;99.70;;;;;;4916570;29;20103;-82
2022/04/11 09:11:34;;;;;;;2.15;0.70;;;11.10;99.90;;;;;;4899565;29;20052;-82
2022/04/11 09:14:02;;;;;;;2.92;0.93;;;11.10;99.90;;;;;;4916925;29;20040;-83
2022/04/11 09:16:41;;;;;;;2.72;1.00;;;11.20;99.10;;;;;;4900272;29;20048;-79
2022/04/11 09:19:17;;;;;;;4.03;0.90;;;10.90;94.00;;;;;;4917128;29;20491;-79
2022/04/11 09:21:46;;;;;;;3.28;0.93;;;11.00;97.90;;;;;;4917178;29;20097;-80
2022/04/11 09:24:17;;;;;;;4.18;0.82;;;11.30;98.70;;;;;;4916934;29;20048;-79
2022/04/11 09:26:43;;;;;;;2.67;0.82;;;11.50;99.90;;;;;;4917199;29;20044;-80
2022/04/11 09:29:09;;;;;;;6.47;1.23;;;11.70;99.90;;;;;;4917068;29;20055;-80
2022/04/11 09:31:34;;;;;;;4.28;1.10;;;11.80;96.60;;;;;;4916791;29;20048;-80
2022/04/11 09:34:19;;;;;;;5.68;1.10;;;12.00;98.50;;;;;;4916823;29;20139;-80
2022/04/11 09:36:55;;;;;;;3.53;0.93;;;12.10;96.80;;;;;;4914994;29;20103;-80
2022/04/11 09:39:23;;;;;;;3.10;1.20;;;12.00;90.40;;;;;;4915617;29;20088;-79
2022/04/11 09:41:50;;;;;;;3.35;1.20;;;12.10;95.80;;;;;;4916294;29;20063;-80
2022/04/11 09:44:26;;;;;;;3.38;1.00;;;12.40;99.90;;;;;;4899635;29;20060;-80
2022/04/11 09:47:00;;;;;;;5.25;1.02;;;12.50;97.70;;;;;;4916651;29;20420;-80
2022/04/11 09:49:26;;;;;;;3.65;0.85;;;12.40;94.40;;;;;;4881289;29;20488;-80
2022/04/11 09:52:08;;;;;;;4.03;0.98;;;12.40;92.90;;;;;;4898059;29;20064;-85
2022/04/11 09:54:42;;;;;;;1.85;0.57;;;12.10;86.90;;;;;;4881069;29;20560;-82
2022/04/11 09:57:08;;;;;;;4.85;1.15;;;12.40;91.80;;;;;;4910773;29;20165;-79
2022/04/11 09:59:35;;;;;;;2.55;0.85;;;12.40;93.20;;;;;;4899605;29;20052;-81
2022/04/11 10:02:00;;;;;;;3.53;0.90;;;12.80;94.00;;;;;;4899995;29;20055;-81
2022/04/11 10:04:27;;;;;;;1.98;0.77;;;12.80;90.40;;;;;;4916807;29;20040;-81
2022/04/11 10:06:53;;;;;;;2.42;1.00;;;12.90;91.40;;;;;;4899709;29;20415;-81
2022/04/11 10:09:23;;;;;;;4.07;0.60;;;13.00;90.90;;;;;;4899847;29;20044;-83
2022/04/11 10:11:53;;;;;;;3.58;1.10;;;12.90;79.60;;;;;;4899722;29;20052;-81
2022/04/11 10:14:23;;;;;;;2.65;0.90;;;12.90;82.20;;;;;;4899830;29;20044;-82
2022/04/11 10:16:54;;;;;;;3.00;0.90;;;12.70;70.40;;;;;;4899721;29;20049;-80
2022/04/11 10:19:29;;;;;;;3.80;1.30;;;12.80;83.10;;;;;;4916650;29;20052;-80
2022/04/11 10:22:00;;;;;;;1.83;1.00;;;12.80;77.60;;;;;;4899971;29;20131;-80
2022/04/11 10:24:33;;;;;;;4.22;1.65;;;12.80;75.90;;;;;;4919735;29;20048;-81
2022/04/11 10:27:14;;;;;;;2.35;0.93;;;12.90;76.00;;;;;;4920000;29;20048;-81
2022/04/11 10:29:40;;;;;;;2.72;1.70;;;13.00;70.30;;;;;;4902338;29;20044;-80
2022/04/11 10:32:06;;;;;;;8.35;1.58;;;12.70;75.00;;;;;;4919302;29;20099;-80
2022/04/11 10:34:54;;;;;;;4.75;1.30;;;12.60;75.70;;;;;;4912975;29;20111;-79
2022/04/11 10:37:22;;;;;;;4.85;1.90;;;12.80;75.40;;;;;;4883909;29;20052;-80
2022/04/11 10:39:50;;;;;;;4.75;1.77;;;12.80;79.30;;;;;;4883918;29;20045;-80
2022/04/11 10:42:27;;;;;;;3.53;2.03;;;12.60;80.30;;;;;;4900790;29;20076;-80
2022/04/11 10:44:58;;;;;;;3.85;1.70;;;12.90;75.20;;;;;;4904781;29;20500;-80
2022/04/11 10:47:32;;;;;;;4.00;1.50;;;12.90;78.20;;;;;;4902339;29;20059;-80
2022/04/11 10:49:57;;;;;;;4.22;1.90;;;13.00;80.20;;;;;;4902720;29;20052;-80
2022/04/11 10:52:35;;;;;;;4.50;2.20;;;13.20;76.80;;;;;;4902357;29;20092;-80
2022/04/11 10:55:18;;;;;;;4.47;2.00;;;13.30;82.30;;;;;;4902593;29;20051;-80
2022/04/11 10:57:56;;;;;;;3.58;1.80;;;13.10;77.50;;;;;;4902347;29;20048;-79
2022/04/11 11:00:32;;;;;;;4.28;1.70;;;13.20;78.70;;;;;;4918839;29;20044;-79
2022/04/11 11:02:59;;;;;;;6.25;2.67;;;13.50;80.00;;;;;;4902134;29;20052;-79
2022/04/11 11:05:28;;;;;;;4.68;1.67;;;13.30;79.70;;;;;;4902366;29;20131;-79
2022/04/11 11:08:12;;;;;;;5.28;2.30;;;13.30;83.50;;;;;;4901407;29;20052;-80
2022/04/11 11:11:16;;;;;;;5.28;1.80;;;13.40;84.40;;;;;;4918355;29;20072;-80
2022/04/11 11:13:42;;;;;;;5.82;2.42;;;13.50;81.40;;;;;;4897213;29;20056;-80
2022/04/11 11:16:08;;;;;;;4.38;2.17;;;13.60;83.50;;;;;;4901867;29;20051;-79
2022/04/11 11:18:48;;;;;;;4.72;1.92;;;13.40;75.00;;;;;;4919140;29;20051;-80
2022/04/11 11:21:19;;;;;;;6.00;2.15;;;13.40;77.30;;;;;;4919048;29;20067;-80
2022/04/11 11:24:12;;;;;;;4.85;1.83;;;13.40;77.30;;;;;;4901818;29;20071;-79
2022/04/11 11:26:46;;;;;;;6.72;2.33;;;13.60;79.80;;;;;;4901796;29;20079;-79
2022/04/11 11:29:23;;;;;;;5.57;2.25;;;13.70;82.00;;;;;;4901775;29;20448;-79
2022/04/11 11:31:51;;;;;;;4.93;2.13;;;13.70;78.80;;;;;;4917972;29;20400;-79
2022/04/11 11:34:19;;;;;;;6.63;2.30;;;13.80;83.00;;;;;;4918073;29;20185;-82
2022/04/11 11:36:45;;;;;;;6.35;2.25;;;13.30;74.40;;;;;;4900858;29;20067;-79
2022/04/11 11:39:22;;;;;;;4.97;2.20;;;13.60;79.70;;;;;;4901136;29;20052;-79
2022/04/11 11:41:53;;;;;;;4.55;2.40;;;13.60;81.50;;;;;;4916684;29;20126;-79
2022/04/11 11:44:20;;;;;;;4.90;2.30;;;13.80;82.60;;;;;;4917902;29;20056;-79
2022/04/11 11:46:49;;;;;;;5.72;2.53;;;13.90;82.30;;;;;;4901555;29;20048;-78
2022/04/11 11:49:16;;;;;;;6.68;2.15;;;14.00;81.70;;;;;;4901251;29;20060;-80
2022/04/11 11:51:41;;;;;;;5.80;3.22;;;13.90;79.50;;;;;;4901533;29;20123;-79
2022/04/11 11:54:07;;;;;;;5.70;2.20;;;13.90;81.50;;;;;;4901193;29;20445;-79
2022/04/11 11:56:43;;;;;;;9.27;2.72;;;13.90;78.80;;;;;;4917678;29;20051;-79
2022/04/11 11:59:10;;;;;;;5.35;2.70;;;13.70;78.00;;;;;;4918033;29;20499;-79
2022/04/11 12:01:37;;;;;;;5.85;2.20;;;13.70;74.80;;;;;;4918082;29;20134;-79
2022/04/11 12:04:21;;;;;;;4.95;2.05;;;13.70;76.60;;;;;;4901110;29;20044;-79
2022/04/11 12:06:55;;;;;;;5.38;3.10;;;13.70;80.80;;;;;;4918081;29;20040;-79
2022/04/11 12:09:21;;;;;;;7.20;2.92;;;13.90;80.70;;;;;;4901444;29;20082;-79
2022/04/11 12:11:47;;;;;;;5.35;2.53;;;13.80;77.50;;;;;;4901354;29;20388;-79
2022/04/11 12:14:13;;;;;;;6.72;3.85;;;13.90;78.40;;;;;;4900990;29;20056;-79
2022/04/11 12:16:57;;;;;;;5.68;2.60;;;13.70;75.90;;;;;;4917913;29;20051;-79
2022/04/11 12:19:36;;;;;;;4.30;2.58;;;13.70;80.90;;;;;;4901239;29;20430;-79
2022/04/11 12:22:12;;;;;;;7.97;3.10;;;13.80;79.90;;;;;;4917684;29;20480;-79
2022/04/11 12:24:38;;;;;;;5.72;3.05;;;13.80;75.50;;;;;;4917715;29;20079;-79
2022/04/11 12:27:04;;;;;;;8.45;3.33;;;13.50;77.50;;;;;;4918096;29;20040;-82
2022/04/11 12:29:41;;;;;;;6.07;2.75;;;13.20;77.00;;;;;;4900928;29;20464;-91
2022/04/11 12:32:12;;;;;;;6.22;2.80;;;13.70;85.10;;;;;;4900939;29;20527;-79
2022/04/11 12:34:40;;;;;;;4.97;2.97;;;13.60;84.00;;;;;;4900708;29;20044;-80
2022/04/11 12:37:07;;;;;;;8.30;3.40;;;13.80;81.90;;;;;;4900546;29;20062;-85
2022/04/11 12:39:54;;;;;;;9.27;3.78;;;13.90;79.30;;;;;;4900644;29;20048;-86
2022/04/11 12:42:22;;;;;;;6.93;3.05;;;13.90;79.10;;;;;;4900603;29;20397;-85
2022/04/11 12:44:48;;;;;;;7.03;2.80;;;14.10;85.20;;;;;;4899950;29;20080;-80
2022/04/11 12:47:14;;;;;;;5.97;3.00;;;14.40;82.30;;;;;;4917749;29;20048;-80
2022/04/11 12:49:49;;;;;;;7.90;3.13;;;14.40;88.70;;;;;;4917699;29;20066;-83
2022/04/11 12:52:17;;;;;;;5.13;3.22;;;13.90;80.00;;;;;;4900506;29;20138;-78
2022/04/11 12:54:45;;;;;;;5.40;2.83;;;13.90;75.70;;;;;;4900304;29;20395;-78
2022/04/11 12:57:18;;;;;;;6.43;3.25;;;14.00;78.90;;;;;;4917178;29;20136;-78